Time;durP1;ratioP1;P1;durP2;ratioP2;P2;SDS_P1;SDS_P2;PMS_P1;PMS_P2;Temp;Humidity;BMP_temperature;BMP_pressure;BME280_temperature;BME280_humidity;BME280_pressure;Samples;Min_cycle;Max_cycle;Signal;HPM_P1;HPM_P2
2022/05/29 00:00:56;;;;;;;0.43;0.20;;;14.40;99.90;;;;;;5033023;28;20110;-70
2022/05/29 00:03:23;;;;;;;2.35;0.20;;;14.40;99.90;;;;;;5027541;28;20560;-71
2022/05/29 00:05:51;;;;;;;1.02;0.15;;;14.50;99.90;;;;;;5022764;28;20096;-69
2022/05/29 00:08:27;;;;;;;0.50;0.10;;;14.40;99.90;;;;;;5028350;28;20036;-71
2022/05/29 00:10:56;;;;;;;1.40;0.20;;;14.30;99.90;;;;;;5036829;28;20025;-70
2022/05/29 00:13:24;;;;;;;0.52;0.28;;;14.40;99.90;;;;;;5037452;28;20021;-70
2022/05/29 00:15:51;;;;;;;1.63;0.10;;;14.60;99.90;;;;;;5029531;28;20405;-70
2022/05/29 00:18:19;;;;;;;0.35;0.10;;;14.60;99.90;;;;;;5023428;28;20077;-70
2022/05/29 00:20:51;;;;;;;9.02;0.35;;;14.60;99.90;;;;;;5028319;28;20490;-70
2022/05/29 00:23:19;;;;;;;3.00;0.10;;;14.70;99.90;;;;;;5023419;28;20021;-70
2022/05/29 00:25:50;;;;;;;1.33;0.10;;;14.80;99.90;;;;;;5025570;28;20029;-71
2022/05/29 00:28:17;;;;;;;0.20;0.10;;;14.90;99.90;;;;;;5025164;28;20458;-70
2022/05/29 00:30:46;;;;;;;0.20;0.10;;;15.00;99.90;;;;;;5022690;28;20056;-70
2022/05/29 00:33:14;;;;;;;0.17;0.10;;;15.00;99.90;;;;;;5032584;28;20537;-70
2022/05/29 00:35:42;;;;;;;1.10;0.10;;;15.00;99.90;;;;;;5027371;28;20052;-69
2022/05/29 00:38:14;;;;;;;1.48;0.20;;;15.10;99.90;;;;;;5033621;28;20080;-70
2022/05/29 00:41:20;;;;;;;0.80;0.20;;;15.20;99.90;;;;;;5024918;28;20441;-70
2022/05/29 00:44:17;;;;;;;0.20;0.10;;;15.20;99.90;;;;;;5024922;28;20046;-69
2022/05/29 00:46:47;;;;;;;1.75;0.40;;;15.30;99.90;;;;;;5029222;28;20371;-70
2022/05/29 00:49:16;;;;;;;0.52;0.10;;;15.30;99.90;;;;;;5028124;28;20024;-71
2022/05/29 00:52:06;;;;;;;1.55;0.40;;;15.30;99.90;;;;;;5034026;28;20025;-71
2022/05/29 00:54:43;;;;;;;1.30;0.17;;;15.40;99.90;;;;;;5030792;28;20044;-71
2022/05/29 00:57:19;;;;;;;0.30;0.10;;;15.50;99.90;;;;;;5021257;28;20034;-70
2022/05/29 00:59:48;;;;;;;1.65;0.10;;;15.60;99.90;;;;;;5020073;28;20494;-70
2022/05/29 01:02:15;;;;;;;0.32;0.10;;;15.80;99.90;;;;;;5028938;28;20028;-70
2022/05/29 01:04:42;;;;;;;1.60;0.10;;;15.70;99.90;;;;;;5016925;28;20528;-70
2022/05/29 01:07:13;;;;;;;0.82;0.10;;;15.50;99.90;;;;;;5021949;28;20599;-70
2022/05/29 01:09:44;;;;;;;0.77;0.20;;;15.50;99.90;;;;;;5031602;28;20466;-70
2022/05/29 01:12:37;;;;;;;0.75;0.20;;;15.60;99.90;;;;;;5033813;28;20024;-69
2022/05/29 01:15:32;;;;;;;0.30;0.10;;;15.50;99.90;;;;;;5022055;28;20095;-69
2022/05/29 01:18:30;;;;;;;2.63;0.38;;;15.60;99.90;;;;;;5021719;28;20030;-70
2022/05/29 01:21:24;;;;;;;0.20;0.13;;;15.70;99.90;;;;;;5030115;28;20029;-69
2022/05/29 01:24:10;;;;;;;1.43;0.17;;;15.80;99.90;;;;;;5032612;28;20037;-69
2022/05/29 01:26:58;;;;;;;0.45;0.20;;;15.90;99.90;;;;;;5024364;28;20029;-71
2022/05/29 01:30:01;;;;;;;0.47;0.20;;;16.00;99.90;;;;;;5019498;28;20489;-70
2022/05/29 01:32:48;;;;;;;0.73;0.20;;;16.00;99.90;;;;;;5023565;28;20068;-70
2022/05/29 01:35:41;;;;;;;0.40;0.10;;;16.00;99.90;;;;;;5019495;28;20169;-70
2022/05/29 01:38:19;;;;;;;0.38;0.20;;;16.00;99.90;;;;;;5021802;28;20030;-70
2022/05/29 01:41:14;;;;;;;0.65;0.32;;;16.00;99.90;;;;;;5017762;28;20040;-70
2022/05/29 01:44:17;;;;;;;0.85;0.10;;;16.20;99.90;;;;;;5014797;28;20387;-69
2022/05/29 01:46:50;;;;;;;0.40;0.20;;;16.10;99.90;;;;;;5029988;28;20074;-69
2022/05/29 01:49:20;;;;;;;0.60;0.10;;;16.20;99.90;;;;;;5028741;28;20026;-70
2022/05/29 01:51:52;;;;;;;0.60;0.10;;;16.40;99.90;;;;;;5028771;28;20509;-69
2022/05/29 01:54:28;;;;;;;0.25;0.10;;;16.50;99.90;;;;;;5047078;28;20378;-69
2022/05/29 01:57:05;;;;;;;3.38;0.10;;;16.60;99.90;;;;;;5035121;28;20099;-69
2022/05/29 01:59:43;;;;;;;2.15;0.47;;;16.20;99.90;;;;;;5031210;28;20029;-68
2022/05/29 02:02:14;;;;;;;0.98;0.10;;;16.30;99.90;;;;;;5018869;28;20053;-69
2022/05/29 02:04:46;;;;;;;0.52;0.20;;;16.50;99.90;;;;;;5026933;28;20437;-69
2022/05/29 02:10:36;;;;;;;1.42;0.63;;;16.80;99.90;;;;;;5022334;28;20084;-70
2022/05/29 02:13:21;;;;;;;0.55;0.20;;;16.80;99.90;;;;;;5028313;28;20100;-69
2022/05/29 02:16:12;;;;;;;0.17;0.10;;;16.80;99.90;;;;;;5020745;28;20513;-69
2022/05/29 02:18:46;;;;;;;0.52;0.10;;;16.80;99.80;;;;;;5013862;28;20048;-69
2022/05/29 02:21:25;;;;;;;1.23;0.10;;;17.00;99.60;;;;;;5029647;28;20029;-69
2022/05/29 02:23:57;;;;;;;0.82;0.10;;;17.00;99.90;;;;;;5026226;28;20033;-69
2022/05/29 02:26:30;;;;;;;0.45;0.00;;;17.20;99.90;;;;;;5028217;28;20048;-69
2022/05/29 02:29:02;;;;;;;0.35;0.10;;;17.30;99.60;;;;;;5016035;28;20381;-69
2022/05/29 02:31:47;;;;;;;1.75;0.10;;;17.10;99.40;;;;;;5029522;28;20014;-69
2022/05/29 02:34:39;;;;;;;0.68;0.30;;;17.20;99.90;;;;;;5034261;28;20036;-69
2022/05/29 02:37:18;;;;;;;0.30;0.10;;;17.20;99.90;;;;;;5014890;28;20041;-69
2022/05/29 02:40:01;;;;;;;0.20;0.08;;;17.00;99.90;;;;;;5014456;28;20060;-69
2022/05/29 02:43:16;;;;;;;0.80;0.22;;;17.70;99.90;;;;;;5032271;28;20025;-70
2022/05/29 02:46:18;;;;;;;0.22;0.10;;;17.70;99.70;;;;;;5025307;28;20037;-69
2022/05/29 02:48:56;;;;;;;0.52;0.10;;;17.30;99.70;;;;;;5016893;28;20325;-68
2022/05/29 02:51:36;;;;;;;0.75;0.20;;;17.20;99.90;;;;;;5017005;28;20364;-69
2022/05/29 02:54:03;;;;;;;1.65;0.10;;;17.00;99.70;;;;;;5020291;28;20125;-70
2022/05/29 02:56:31;;;;;;;0.20;0.10;;;17.00;99.70;;;;;;5022644;28;20030;-70
2022/05/29 02:59:00;;;;;;;1.05;0.10;;;17.00;99.70;;;;;;5021011;28;20486;-69
2022/05/29 03:01:52;;;;;;;0.75;0.10;;;16.90;99.20;;;;;;5020601;28;20025;-69
2022/05/29 03:04:19;;;;;;;0.13;0.00;;;16.90;98.80;;;;;;5032244;28;20053;-69
2022/05/29 03:07:14;;;;;;;0.45;0.10;;;17.00;99.30;;;;;;5033572;28;20100;-69
2022/05/29 03:09:59;;;;;;;0.32;0.00;;;17.00;99.30;;;;;;5032501;28;20025;-70
2022/05/29 03:12:55;;;;;;;0.20;0.10;;;16.90;98.60;;;;;;5022492;28;20065;-70
2022/05/29 03:15:41;;;;;;;0.20;0.10;;;16.90;98.20;;;;;;5018019;28;20533;-70
2022/05/29 03:18:23;;;;;;;0.28;0.20;;;16.90;98.50;;;;;;5026577;28;20030;-70
2022/05/29 03:21:06;;;;;;;0.70;0.40;;;16.80;98.70;;;;;;5028602;28;20022;-68
2022/05/29 03:24:28;;;;;;;0.50;0.20;;;16.70;99.10;;;;;;5031853;28;20033;-68
2022/05/29 03:27:15;;;;;;;0.13;0.10;;;16.90;99.00;;;;;;5032066;28;20026;-69
2022/05/29 03:30:14;;;;;;;1.10;0.32;;;16.80;98.70;;;;;;5033126;28;20033;-68
2022/05/29 03:32:42;;;;;;;0.88;0.20;;;17.00;98.80;;;;;;5032416;28;20029;-69
2022/05/29 03:35:54;;;;;;;0.20;0.10;;;17.00;99.20;;;;;;5034696;28;20053;-70
2022/05/29 03:38:22;;;;;;;1.52;0.30;;;16.90;99.20;;;;;;5035722;28;20065;-70
2022/05/29 03:40:50;;;;;;;0.55;0.00;;;16.90;99.00;;;;;;5034378;28;20057;-69
2022/05/29 03:43:18;;;;;;;0.85;0.20;;;16.80;99.00;;;;;;5034859;28;20068;-69
2022/05/29 03:45:45;;;;;;;1.75;0.20;;;16.80;98.90;;;;;;5035745;28;20046;-70
2022/05/29 03:48:12;;;;;;;0.22;0.00;;;16.80;99.30;;;;;;5033392;28;20108;-69
2022/05/29 03:50:39;;;;;;;0.20;0.10;;;16.70;99.20;;;;;;5039093;28;20025;-70
2022/05/29 03:53:10;;;;;;;0.73;0.15;;;16.80;99.40;;;;;;5040087;28;20037;-70
2022/05/29 03:55:37;;;;;;;0.60;0.00;;;16.80;99.50;;;;;;5035248;28;20025;-69
2022/05/29 03:58:04;;;;;;;0.50;0.10;;;16.80;99.50;;;;;;5031387;28;20032;-70
2022/05/29 04:00:32;;;;;;;1.35;0.10;;;16.90;99.60;;;;;;5037917;28;20080;-69
2022/05/29 04:03:01;;;;;;;0.38;0.10;;;16.90;99.10;;;;;;5029872;28;20105;-70
2022/05/29 04:05:28;;;;;;;0.10;0.05;;;16.80;99.50;;;;;;5034557;28;20489;-70
2022/05/29 04:13:39;;;;;;;1.38;0.15;;;16.90;99.70;;;;;;5041325;28;20028;-69
2022/05/29 04:16:06;;;;;;;0.30;0.20;;;16.80;99.60;;;;;;5037099;28;20030;-69
2022/05/29 04:18:33;;;;;;;0.38;0.20;;;16.60;99.70;;;;;;5038568;28;20053;-70
2022/05/29 04:21:01;;;;;;;0.50;0.17;;;16.60;99.90;;;;;;5034435;28;20020;-70
2022/05/29 04:23:28;;;;;;;0.45;0.10;;;16.70;99.90;;;;;;5039894;28;20025;-69
2022/05/29 04:25:56;;;;;;;0.75;0.20;;;16.60;98.80;;;;;;5032743;28;20074;-70
2022/05/29 04:28:23;;;;;;;0.47;0.17;;;16.60;99.10;;;;;;5034502;28;20017;-69
2022/05/29 04:30:51;;;;;;;1.20;0.10;;;16.50;99.10;;;;;;5027751;28;20030;-70
2022/05/29 04:33:18;;;;;;;0.30;0.10;;;16.60;99.60;;;;;;5034286;28;20021;-70
2022/05/29 04:35:50;;;;;;;0.43;0.10;;;16.50;99.50;;;;;;5039648;28;20060;-70
2022/05/29 04:38:19;;;;;;;1.52;0.17;;;16.70;99.40;;;;;;5041076;28;20053;-70
2022/05/29 04:40:46;;;;;;;1.73;0.13;;;16.50;98.30;;;;;;5032588;28;20409;-69
2022/05/29 04:43:15;;;;;;;0.45;0.25;;;16.50;98.60;;;;;;5024785;28;20040;-69
2022/05/29 04:45:45;;;;;;;2.58;0.15;;;16.50;98.70;;;;;;5030302;28;20022;-69
2022/05/29 04:48:16;;;;;;;0.15;0.10;;;16.50;98.50;;;;;;5025609;28;20022;-69
2022/05/29 04:50:43;;;;;;;0.75;0.10;;;16.50;99.50;;;;;;5025466;28;20100;-69
2022/05/29 04:53:11;;;;;;;0.15;0.00;;;16.40;99.30;;;;;;5019284;28;20053;-69
2022/05/29 04:55:42;;;;;;;0.28;0.10;;;16.40;98.80;;;;;;5025353;28;20203;-68
2022/05/29 04:58:10;;;;;;;0.88;0.10;;;16.40;99.10;;;;;;5023630;28;20041;-69
2022/05/29 05:00:37;;;;;;;0.20;0.00;;;16.40;99.10;;;;;;5017755;28;20022;-67
2022/05/29 05:03:05;;;;;;;0.20;0.10;;;16.30;99.10;;;;;;5020295;28;20061;-69
2022/05/29 05:05:32;;;;;;;1.42;0.25;;;16.30;99.20;;;;;;5020751;28;20028;-70
2022/05/29 05:07:59;;;;;;;0.82;0.17;;;16.30;99.20;;;;;;5026613;28;20095;-69
2022/05/29 05:10:26;;;;;;;0.45;0.13;;;16.30;99.60;;;;;;5024147;28;20678;-70
2022/05/29 05:12:54;;;;;;;0.38;0.10;;;16.40;98.90;;;;;;5027777;28;20733;-69
2022/05/29 05:15:21;;;;;;;0.47;0.20;;;16.40;98.90;;;;;;5019350;28;20056;-70
2022/05/29 05:17:49;;;;;;;1.88;0.20;;;16.40;98.50;;;;;;5021815;28;20422;-69
2022/05/29 05:20:17;;;;;;;1.38;0.30;;;16.30;99.20;;;;;;5019282;28;20037;-69
2022/05/29 05:22:44;;;;;;;0.47;0.17;;;16.30;98.90;;;;;;5025305;28;20496;-69
2022/05/29 05:25:11;;;;;;;0.30;0.10;;;16.30;98.60;;;;;;5027580;28;20033;-69
2022/05/29 05:27:39;;;;;;;0.57;0.43;;;16.20;98.70;;;;;;5026649;28;20042;-69
2022/05/29 05:30:07;;;;;;;0.88;0.10;;;16.20;99.00;;;;;;5028307;28;20375;-69
2022/05/29 05:32:34;;;;;;;1.45;0.10;;;16.20;99.40;;;;;;5024427;28;20447;-70
2022/05/29 05:35:05;;;;;;;0.68;0.20;;;16.10;99.20;;;;;;5021351;28;20110;-69
2022/05/29 05:37:35;;;;;;;0.25;0.10;;;16.10;99.60;;;;;;5028185;28;20125;-69
2022/05/29 05:40:09;;;;;;;0.45;0.28;;;16.10;99.60;;;;;;5026616;28;20025;-69
2022/05/29 05:42:37;;;;;;;0.10;0.10;;;16.10;99.30;;;;;;5021580;28;20032;-69
2022/05/29 05:45:07;;;;;;;1.02;0.20;;;16.00;99.30;;;;;;5023252;28;20105;-68
2022/05/29 05:47:34;;;;;;;0.85;0.25;;;16.00;99.50;;;;;;5022844;28;20021;-68
2022/05/29 05:50:02;;;;;;;0.40;0.10;;;15.90;99.50;;;;;;5024668;28;20038;-69
2022/05/29 05:52:29;;;;;;;2.53;0.10;;;15.90;99.80;;;;;;5025639;28;20078;-69
2022/05/29 05:54:56;;;;;;;0.85;0.20;;;15.80;99.90;;;;;;5025094;28;20033;-69
2022/05/29 05:57:24;;;;;;;0.35;0.20;;;15.80;99.90;;;;;;5019345;28;20536;-68
2022/05/29 05:59:51;;;;;;;2.25;0.10;;;15.80;99.90;;;;;;5022281;28;20763;-69
2022/05/29 06:02:18;;;;;;;1.30;0.20;;;15.70;99.90;;;;;;5019808;28;20033;-69
2022/05/29 06:04:46;;;;;;;0.98;0.40;;;15.70;99.90;;;;;;5021732;28;20386;-68
2022/05/29 06:07:13;;;;;;;0.35;0.13;;;15.60;99.90;;;;;;5025544;28;20055;-69
2022/05/29 06:09:40;;;;;;;0.43;0.10;;;15.60;99.90;;;;;;5027290;28;20033;-69
2022/05/29 06:12:09;;;;;;;0.50;0.20;;;15.50;99.90;;;;;;5029207;28;20027;-69
2022/05/29 06:14:37;;;;;;;0.88;0.10;;;15.40;99.90;;;;;;5027337;28;20474;-69
2022/05/29 06:17:05;;;;;;;1.05;0.20;;;15.40;99.90;;;;;;5025187;28;20034;-69
2022/05/29 06:19:33;;;;;;;0.95;0.25;;;15.40;99.90;;;;;;5019507;28;20022;-70
2022/05/29 06:22:01;;;;;;;1.10;0.10;;;15.30;99.90;;;;;;5028131;28;20056;-69
2022/05/29 06:24:28;;;;;;;1.63;0.40;;;15.20;99.90;;;;;;5025076;28;20026;-70
2022/05/29 06:26:59;;;;;;;0.50;0.28;;;15.20;99.90;;;;;;5026459;28;20067;-70
2022/05/29 06:29:27;;;;;;;0.90;0.20;;;15.10;99.90;;;;;;5020497;28;20021;-69
2022/05/29 06:31:59;;;;;;;0.22;0.13;;;15.00;99.90;;;;;;5018417;28;20026;-69
2022/05/29 06:34:27;;;;;;;0.70;0.30;;;15.00;99.90;;;;;;5021248;28;20041;-69
2022/05/29 06:36:54;;;;;;;0.50;0.30;;;15.00;99.90;;;;;;5021328;28;20080;-69
2022/05/29 06:39:22;;;;;;;1.52;0.40;;;14.90;99.80;;;;;;5019497;28;20053;-69
2022/05/29 06:41:49;;;;;;;0.52;0.20;;;14.90;99.90;;;;;;5024830;28;20473;-69
2022/05/29 06:44:17;;;;;;;0.75;0.32;;;14.90;99.70;;;;;;5030142;28;20071;-69
2022/05/29 06:46:44;;;;;;;0.65;0.43;;;14.80;99.90;;;;;;5027559;28;20056;-70
2022/05/29 06:49:12;;;;;;;0.20;0.15;;;14.70;99.90;;;;;;5025019;28;20034;-69
2022/05/29 06:51:39;;;;;;;0.85;0.40;;;14.60;99.90;;;;;;5027670;28;20071;-69
2022/05/29 06:54:07;;;;;;;1.65;0.30;;;14.60;99.90;;;;;;5025316;28;20018;-69
2022/05/29 06:56:34;;;;;;;1.02;0.40;;;14.60;99.90;;;;;;5022427;28;20379;-68
2022/05/29 06:59:03;;;;;;;0.70;0.40;;;14.50;99.90;;;;;;5022932;28;20487;-68
2022/05/29 07:07:11;;;;;;;1.15;0.57;;;14.30;99.90;;;;;;5019884;28;20582;-69
2022/05/29 07:09:39;;;;;;;2.20;0.65;;;14.30;99.90;;;;;;5025916;28;20504;-69
2022/05/29 07:12:27;;;;;;;1.90;0.70;;;14.30;99.90;;;;;;5034528;28;20532;-69
2022/05/29 07:15:09;;;;;;;0.88;0.40;;;14.30;99.90;;;;;;5026992;28;20053;-69
2022/05/29 07:17:36;;;;;;;2.05;0.40;;;14.30;99.90;;;;;;5026141;28;20033;-69
2022/05/29 07:20:05;;;;;;;3.88;0.60;;;14.20;99.90;;;;;;5025395;28;20029;-68
2022/05/29 07:22:33;;;;;;;2.20;0.40;;;14.20;99.90;;;;;;5034889;28;20437;-69
2022/05/29 07:25:01;;;;;;;1.08;0.55;;;14.10;99.90;;;;;;5022867;28;20503;-69
2022/05/29 07:27:28;;;;;;;2.25;0.60;;;14.10;99.90;;;;;;5023893;28;20052;-66
2022/05/29 07:29:55;;;;;;;0.95;0.60;;;14.10;99.90;;;;;;5015420;28;20030;-66
2022/05/29 07:32:24;;;;;;;1.25;0.50;;;14.10;99.90;;;;;;5011076;28;20026;-66
2022/05/29 07:34:52;;;;;;;2.58;0.50;;;14.00;99.90;;;;;;5017981;28;20112;-67
2022/05/29 07:37:21;;;;;;;2.33;0.32;;;14.00;99.90;;;;;;5023803;28;20379;-67
2022/05/29 07:39:52;;;;;;;0.90;0.60;;;13.90;99.90;;;;;;5021066;28;20036;-67
2022/05/29 07:45:07;;;;;;;2.80;0.60;;;14.00;99.90;;;;;;5023363;28;20446;-66
2022/05/29 07:47:42;;;;;;;1.52;0.75;;;13.80;99.90;;;;;;5026399;28;20041;-67
2022/05/29 07:50:12;;;;;;;1.65;0.70;;;13.80;99.90;;;;;;5027419;28;20503;-66
2022/05/29 07:52:39;;;;;;;1.13;0.47;;;13.80;99.90;;;;;;5015366;28;20391;-66
2022/05/29 07:55:07;;;;;;;2.40;0.77;;;13.80;99.90;;;;;;5019078;28;20820;-66
2022/05/29 07:57:34;;;;;;;2.17;0.88;;;13.70;99.90;;;;;;5014853;28;20041;-66
2022/05/29 08:00:03;;;;;;;3.78;0.90;;;13.80;99.90;;;;;;5016873;28;20022;-66
2022/05/29 08:02:34;;;;;;;3.78;0.95;;;13.70;99.90;;;;;;5034578;28;20029;-66
2022/05/29 08:05:03;;;;;;;3.58;1.15;;;13.60;99.90;;;;;;5024271;28;20099;-66
2022/05/29 08:07:30;;;;;;;2.67;1.27;;;13.60;99.90;;;;;;5029664;28;20072;-66
2022/05/29 08:09:58;;;;;;;9.13;4.40;;;13.60;99.90;;;;;;5027385;28;20026;-66
2022/05/29 08:12:25;;;;;;;12.02;6.30;;;13.50;99.90;;;;;;5015096;28;20036;-66
2022/05/29 08:14:53;;;;;;;6.10;2.58;;;13.40;99.90;;;;;;5016501;28;20026;-66
2022/05/29 08:17:20;;;;;;;6.18;2.78;;;13.30;99.90;;;;;;5025104;28;20034;-67
2022/05/29 08:19:47;;;;;;;7.25;4.28;;;13.40;99.90;;;;;;5014632;28;20557;-67
2022/05/29 08:22:15;;;;;;;3.22;1.50;;;13.30;99.90;;;;;;5023937;28;20022;-68
2022/05/29 08:33:07;;;;;;;4.00;1.85;;;13.20;99.90;;;;;;5022032;28;20096;-67
2022/05/29 08:35:35;;;;;;;2.47;1.33;;;13.10;99.90;;;;;;5023172;28;20025;-68
2022/05/29 08:38:04;;;;;;;3.42;1.67;;;13.20;99.90;;;;;;5014110;28;20068;-68
2022/05/29 08:40:33;;;;;;;3.85;2.05;;;13.10;99.90;;;;;;5023746;28;20021;-69
2022/05/29 08:43:00;;;;;;;5.03;3.33;;;13.10;99.90;;;;;;5030795;28;20079;-67
2022/05/29 08:45:34;;;;;;;4.22;1.70;;;13.00;99.90;;;;;;5020007;28;20128;-68
2022/05/29 08:48:03;;;;;;;2.85;1.40;;;13.00;99.90;;;;;;5024004;28;20413;-68
2022/05/29 08:51:05;;;;;;;3.50;1.70;;;12.90;99.90;;;;;;5019643;28;20057;-69
2022/05/29 08:53:40;;;;;;;2.63;1.30;;;13.00;99.90;;;;;;5015167;28;20117;-68
2022/05/29 08:56:19;;;;;;;4.70;2.03;;;13.00;99.90;;;;;;5015248;28;20033;-69
2022/05/29 08:59:03;;;;;;;4.88;2.05;;;13.00;99.90;;;;;;5029067;28;20079;-68
2022/05/29 09:01:38;;;;;;;;;;;13.00;99.90;;;;;;5021445;28;20033;-68
2022/05/29 09:04:12;;;;;;;2.60;1.00;;;12.90;99.90;;;;;;5018530;28;19909;-68
2022/05/29 09:06:44;;;;;;;;;;;12.90;99.90;;;;;;5029198;28;20056;-68
2022/05/29 09:09:30;;;;;;;2.22;1.40;;;12.90;99.90;;;;;;5022028;28;19959;-68
2022/05/29 09:12:12;;;;;;;4.47;1.20;;;12.90;99.90;;;;;;5016403;28;20026;-68
2022/05/29 09:14:53;;;;;;;3.55;1.33;;;12.80;99.90;;;;;;5014264;28;20556;-69
2022/05/29 09:17:43;;;;;;;5.63;2.00;;;12.80;99.90;;;;;;5024493;28;20045;-68
2022/05/29 09:20:37;;;;;;;3.85;1.83;;;12.80;99.90;;;;;;5019411;28;20389;-69
2022/05/29 09:23:09;;;;;;;2.13;1.10;;;12.80;99.90;;;;;;5022307;28;20075;-68
2022/05/29 09:25:44;;;;;;;2.13;0.95;;;12.70;99.90;;;;;;5018593;28;20433;-69
2022/05/29 09:28:25;;;;;;;4.18;2.20;;;12.70;99.90;;;;;;5028117;28;20566;-69
2022/05/29 09:31:06;;;;;;;4.78;1.75;;;12.70;99.90;;;;;;5024706;28;20025;-69
2022/05/29 09:33:35;;;;;;;1.80;0.80;;;12.60;99.90;;;;;;5014127;28;20038;-69
2022/05/29 09:36:20;;;;;;;1.98;0.98;;;12.60;99.90;;;;;;5021288;28;20405;-69
2022/05/29 09:39:22;;;;;;;5.75;2.05;;;12.60;99.90;;;;;;5021821;28;20029;-69
2022/05/29 09:42:04;;;;;;;3.20;1.70;;;12.60;99.90;;;;;;5013525;28;20034;-67
2022/05/29 09:44:34;;;;;;;5.72;2.45;;;12.60;99.90;;;;;;5025584;28;20033;-66
2022/05/29 09:50:10;;;;;;;5.05;3.13;;;12.40;99.90;;;;;;5028718;28;20044;-69
2022/05/29 09:52:43;;;;;;;4.57;2.78;;;12.50;99.90;;;;;;5014558;28;20042;-69
2022/05/29 09:55:29;;;;;;;10.20;6.57;;;12.40;99.90;;;;;;5027495;28;20045;-70
2022/05/29 09:58:10;;;;;;;13.90;8.38;;;12.40;99.90;;;;;;5029480;28;20099;-69
2022/05/29 10:00:52;;;;;;;6.28;2.55;;;12.30;99.90;;;;;;5016086;28;20446;-71
2022/05/29 10:03:56;;;;;;;3.33;1.35;;;12.40;99.90;;;;;;5026378;28;20022;-70
2022/05/29 10:06:23;;;;;;;3.25;1.77;;;12.30;99.90;;;;;;5019988;28;20033;-68
2022/05/29 10:08:53;;;;;;;3.60;1.20;;;12.30;99.90;;;;;;5013263;28;20091;-69
2022/05/29 10:11:30;;;;;;;2.38;0.98;;;12.20;99.90;;;;;;5027833;28;20033;-68
2022/05/29 10:14:01;;;;;;;3.58;1.10;;;12.20;99.90;;;;;;5030479;28;20462;-68
2022/05/29 10:16:39;;;;;;;1.77;0.80;;;12.30;99.90;;;;;;5014206;28;20044;-68
2022/05/29 10:19:14;;;;;;;2.45;0.52;;;12.30;99.90;;;;;;5012882;28;20035;-68
2022/05/29 10:21:50;;;;;;;1.58;0.70;;;12.30;99.90;;;;;;5029070;28;20025;-68
2022/05/29 10:24:27;;;;;;;1.48;0.60;;;12.20;99.90;;;;;;5032192;28;20038;-68
2022/05/29 10:26:58;;;;;;;2.25;0.38;;;12.30;99.90;;;;;;5026177;28;20021;-70
2022/05/29 10:29:31;;;;;;;1.88;0.32;;;12.40;99.90;;;;;;5030038;28;20022;-68
2022/05/29 10:32:01;;;;;;;0.95;0.30;;;12.40;99.90;;;;;;5023198;28;20014;-69
2022/05/29 10:34:33;;;;;;;0.90;0.43;;;12.40;99.90;;;;;;5025686;28;20021;-70
2022/05/29 10:37:24;;;;;;;1.30;0.40;;;12.50;99.90;;;;;;5019254;28;20041;-70
2022/05/29 10:39:51;;;;;;;1.02;0.40;;;12.60;99.90;;;;;;5012164;28;20056;-69
2022/05/29 10:42:43;;;;;;;2.72;0.40;;;12.50;99.90;;;;;;5019110;28;20408;-70
2022/05/29 10:45:28;;;;;;;1.38;0.40;;;12.40;99.90;;;;;;5027504;28;20033;-70
2022/05/29 10:48:04;;;;;;;6.70;1.10;;;12.30;99.90;;;;;;5015681;28;20064;-70
2022/05/29 10:50:49;;;;;;;2.00;0.60;;;12.40;99.90;;;;;;5015710;28;20040;-69
2022/05/29 10:53:36;;;;;;;2.40;0.85;;;12.40;99.90;;;;;;5029383;28;20062;-69
2022/05/29 10:56:42;;;;;;;0.93;0.40;;;12.30;99.90;;;;;;5020170;28;20051;-69
2022/05/29 10:59:14;;;;;;;;;;;12.30;99.90;;;;;;5032716;28;20076;-70
2022/05/29 11:05:25;;;;;;;0.70;0.30;;;12.10;99.90;;;;;;5025052;28;20093;-69
2022/05/29 11:08:12;;;;;;;2.42;0.90;;;12.20;99.90;;;;;;5011099;28;20030;-70
2022/05/29 11:11:13;;;;;;;3.38;1.63;;;12.10;99.90;;;;;;5020825;28;20117;-70
2022/05/29 11:14:07;;;;;;;2.67;0.80;;;12.10;99.90;;;;;;5017763;28;20033;-69
2022/05/29 11:16:42;;;;;;;2.00;0.60;;;12.10;99.90;;;;;;5020933;28;20493;-70
2022/05/29 11:19:21;;;;;;;3.05;0.65;;;12.10;99.90;;;;;;5016047;28;20065;-70
2022/05/29 11:22:03;;;;;;;5.07;1.35;;;12.20;99.90;;;;;;5031097;28;20470;-71
2022/05/29 11:24:40;;;;;;;2.28;0.90;;;12.10;99.90;;;;;;5020381;28;20079;-70
2022/05/29 11:27:44;;;;;;;2.75;0.90;;;12.10;99.90;;;;;;5021009;28;20482;-69
2022/05/29 11:30:20;;;;;;;2.05;0.60;;;12.10;99.90;;;;;;5020337;28;20029;-68
2022/05/29 11:32:59;;;;;;;1.75;0.60;;;12.10;99.90;;;;;;5025166;28;20025;-70
2022/05/29 11:35:34;;;;;;;1.98;0.70;;;12.00;99.90;;;;;;5020563;28;20037;-68
2022/05/29 11:38:22;;;;;;;1.55;0.70;;;11.80;99.90;;;;;;5022391;28;20049;-68
2022/05/29 11:41:15;;;;;;;2.88;0.60;;;11.80;99.90;;;;;;5023351;28;20030;-68
2022/05/29 11:44:05;;;;;;;2.90;0.68;;;11.90;99.90;;;;;;5017278;28;20041;-68
2022/05/29 11:52:36;;;;;;;2.33;0.85;;;11.80;99.90;;;;;;5024120;28;20139;-69
2022/05/29 11:55:12;;;;;;;2.17;0.57;;;11.80;99.90;;;;;;5017119;28;20421;-69
2022/05/29 11:57:51;;;;;;;1.85;0.60;;;11.90;99.90;;;;;;5022817;28;20029;-69
2022/05/29 12:00:36;;;;;;;2.30;0.50;;;11.70;99.90;;;;;;5024622;28;20079;-68
2022/05/29 12:03:33;;;;;;;6.18;0.70;;;11.70;99.90;;;;;;5025996;28;20025;-69
2022/05/29 12:06:19;;;;;;;2.67;0.52;;;11.70;99.90;;;;;;5024996;28;20079;-69
2022/05/29 12:08:54;;;;;;;2.17;0.47;;;11.70;99.90;;;;;;5023369;28;20100;-69
2022/05/29 12:11:48;;;;;;;1.20;0.40;;;11.70;99.90;;;;;;5022007;28;20014;-69
2022/05/29 12:14:49;;;;;;;1.00;0.50;;;11.70;99.90;;;;;;5026973;28;20389;-69
2022/05/29 12:17:34;;;;;;;1.00;0.55;;;11.60;99.90;;;;;;5020030;28;20033;-70
2022/05/29 12:20:08;;;;;;;3.70;0.60;;;11.60;99.90;;;;;;5019128;28;20397;-68
2022/05/29 12:22:51;;;;;;;1.25;0.52;;;11.70;99.90;;;;;;5023631;28;20025;-68
2022/05/29 12:26:06;;;;;;;2.25;0.60;;;11.60;99.90;;;;;;5026086;28;20064;-68
2022/05/29 12:28:48;;;;;;;;;;;11.50;99.90;;;;;;5043054;28;20123;-68
2022/05/29 12:31:37;;;;;;;3.10;0.80;;;11.60;99.90;;;;;;5020676;28;19916;-68
2022/05/29 12:34:06;;;;;;;2.78;1.10;;;11.60;99.90;;;;;;5019705;28;20053;-69
2022/05/29 12:37:18;;;;;;;3.20;0.95;;;11.60;99.90;;;;;;5026351;28;20502;-69
2022/05/29 12:40:13;;;;;;;1.15;0.60;;;11.50;99.90;;;;;;5014008;28;20394;-68
2022/05/29 12:42:55;;;;;;;;;;;11.40;99.90;;;;;;5018670;28;20052;-68
2022/05/29 12:45:28;;;;;;;4.10;0.88;;;11.50;99.90;;;;;;5027934;28;19963;-69
2022/05/29 12:48:11;;;;;;;2.03;0.80;;;11.50;99.90;;;;;;5029322;28;20057;-68
2022/05/29 12:50:52;;;;;;;2.20;0.90;;;11.30;99.90;;;;;;5024343;28;20030;-69
2022/05/29 12:53:48;;;;;;;1.65;0.80;;;11.40;99.90;;;;;;5016983;28;20050;-68
2022/05/29 12:56:18;;;;;;;2.55;0.93;;;11.30;99.90;;;;;;5016445;28;20037;-69
2022/05/29 12:58:54;;;;;;;4.60;1.13;;;11.20;99.90;;;;;;5023193;28;20032;-69
2022/05/29 13:01:46;;;;;;;1.95;0.80;;;11.30;99.90;;;;;;5023640;28;20057;-68
2022/05/29 13:04:30;;;;;;;4.38;1.10;;;11.20;99.90;;;;;;5026681;28;20037;-69
2022/05/29 13:07:23;;;;;;;1.33;0.70;;;11.20;99.90;;;;;;5031490;28;20402;-69
2022/05/29 13:10:24;;;;;;;4.47;0.75;;;11.20;99.90;;;;;;5024019;28;20122;-69
2022/05/29 13:13:01;;;;;;;1.17;0.50;;;11.20;99.90;;;;;;5027859;28;20049;-68
2022/05/29 13:15:32;;;;;;;1.67;0.60;;;11.20;99.90;;;;;;5029484;28;20021;-69
2022/05/29 13:21:12;;;;;;;1.80;0.50;;;11.10;99.90;;;;;;5027600;28;20013;-69
2022/05/29 13:23:52;;;;;;;2.20;0.57;;;11.10;99.90;;;;;;5028407;28;20024;-68
2022/05/29 13:26:28;;;;;;;1.42;0.88;;;11.10;99.90;;;;;;5030409;28;20482;-69
2022/05/29 13:28:59;;;;;;;1.67;0.90;;;11.00;99.90;;;;;;5020086;28;20033;-69
2022/05/29 13:31:31;;;;;;;2.25;0.60;;;11.10;99.90;;;;;;5016467;28;20400;-70
2022/05/29 13:34:25;;;;;;;1.33;0.50;;;11.10;99.90;;;;;;5026949;28;20037;-69
2022/05/29 13:36:53;;;;;;;2.10;0.52;;;11.10;99.90;;;;;;5029502;28;20037;-69
2022/05/29 13:39:37;;;;;;;2.67;0.55;;;11.20;99.90;;;;;;5017005;28;20432;-70
2022/05/29 13:42:06;;;;;;;1.00;0.30;;;11.20;99.90;;;;;;5028584;28;20508;-69
2022/05/29 13:44:43;;;;;;;1.30;0.47;;;11.10;99.90;;;;;;5019889;28;20022;-69
2022/05/29 13:47:23;;;;;;;1.27;0.45;;;11.10;99.90;;;;;;5026221;28;20033;-70
2022/05/29 13:50:15;;;;;;;1.05;0.65;;;11.10;99.90;;;;;;5021832;28;20105;-67
2022/05/29 13:52:57;;;;;;;1.27;0.47;;;11.10;99.90;;;;;;5021612;28;20038;-69
2022/05/29 13:55:30;;;;;;;5.22;0.60;;;11.10;99.90;;;;;;5018059;28;20033;-68
2022/05/29 14:04:03;;;;;;;2.15;0.50;;;11.10;99.90;;;;;;5025627;28;20052;-68
2022/05/29 14:06:32;;;;;;;1.02;0.30;;;11.10;99.90;;;;;;5013562;28;20056;-69
2022/05/29 14:09:06;;;;;;;0.95;0.40;;;11.10;99.90;;;;;;5032273;28;20040;-68
2022/05/29 14:11:56;;;;;;;3.95;0.70;;;11.10;99.90;;;;;;5025744;28;20080;-69
2022/05/29 14:14:35;;;;;;;2.97;0.60;;;11.10;99.90;;;;;;5020097;28;20021;-69
2022/05/29 14:17:15;;;;;;;1.90;0.60;;;10.90;99.90;;;;;;5017658;28;20482;-68
2022/05/29 14:20:20;;;;;;;2.05;0.88;;;10.80;99.90;;;;;;5031478;28;20029;-69
2022/05/29 14:22:54;;;;;;;;;;;10.70;99.90;;;;;;5029799;28;20469;-68